TAF TKPK
TKPK 081740Z 0818/0918 06013KT P6SM VCSH SCT018 AMD NOT SKED 0902/0911=
METAR TKPK
WC TKPK
WS TKPK
WV TKPK